createdAt,value
2023-04-07T00:00:32.895Z,98756.98
2023-04-07T00:03:02.632Z,98755.73
2023-04-07T00:05:31.587Z,98762.96
2023-04-07T00:07:59.762Z,98760.02
2023-04-07T00:10:28.909Z,98758.00
2023-04-07T00:12:57.198Z,98755.97
2023-04-07T00:15:25.324Z,98755.69
2023-04-07T00:17:57.542Z,98759.78
2023-04-07T00:20:25.840Z,98762.48
2023-04-07T00:22:53.752Z,98760.19
2023-04-07T00:25:22.346Z,98766.48
2023-04-07T00:27:50.706Z,98767.77
2023-04-07T00:30:18.956Z,98767.73
2023-04-07T00:32:47.657Z,98768.40
2023-04-07T00:35:16.675Z,98763.90
2023-04-07T00:37:45.025Z,98768.88
2023-04-07T00:40:13.469Z,98770.09
2023-04-07T00:42:42.102Z,98776.52
2023-04-07T00:45:11.541Z,98777.04
2023-04-07T00:47:39.645Z,98774.59
2023-04-07T00:50:08.242Z,98772.68
2023-04-07T00:52:36.256Z,98775.55
2023-04-07T00:55:05.302Z,98777.96
2023-04-07T00:57:33.898Z,98777.30
2023-04-07T01:00:02.255Z,98781.60
2023-04-07T01:02:41.254Z,98784.56
2023-04-07T01:05:16.304Z,98787.68
2023-04-07T01:08:03.515Z,98790.05
2023-04-07T01:10:35.983Z,98792.07
2023-04-07T01:13:29.884Z,98796.33
2023-04-07T01:16:17.356Z,98800.68
2023-04-07T01:18:51.601Z,98807.85
2023-04-07T01:21:19.530Z,98809.46
2023-04-07T01:24:21.761Z,98811.88
2023-04-07T01:26:49.711Z,98814.27
2023-04-07T01:29:41.943Z,98822.82
2023-04-07T01:32:10.323Z,98819.45
2023-04-07T01:34:38.613Z,98823.36
2023-04-07T01:37:06.981Z,98823.52
2023-04-07T01:39:36.265Z,98822.27
2023-04-07T01:42:04.299Z,98826.63
2023-04-07T01:44:32.729Z,98827.19
2023-04-07T01:47:01.097Z,98828.00
2023-04-07T01:49:31.679Z,98831.45
2023-04-07T01:52:00.313Z,98834.92
2023-04-07T01:54:28.377Z,98832.58
2023-04-07T01:56:57.351Z,98833.82
2023-04-07T01:59:25.801Z,98832.04
2023-04-07T02:01:54.671Z,98838.95
2023-04-07T02:04:28.688Z,98839.30
2023-04-07T02:07:03.128Z,98840.05
2023-04-07T02:09:38.936Z,98847.16
2023-04-07T02:12:08.555Z,98847.48
2023-04-07T02:14:38.812Z,98844.94
2023-04-07T02:17:10.442Z,98844.23
2023-04-07T02:19:42.000Z,98850.77
2023-04-07T02:22:10.710Z,98850.65
2023-04-07T02:24:43.881Z,98848.64
2023-04-07T02:27:11.878Z,98849.44
2023-04-07T02:29:39.893Z,98852.44
2023-04-07T02:32:08.477Z,98851.05
2023-04-07T02:34:36.871Z,98844.88
2023-04-07T02:37:05.324Z,98848.98
2023-04-07T02:39:35.456Z,98851.73
2023-04-07T02:42:03.478Z,98851.48
2023-04-07T02:44:33.846Z,98855.63
2023-04-07T02:47:01.817Z,98856.57
2023-04-07T02:49:30.563Z,98861.88
2023-04-07T02:51:59.555Z,98864.95
2023-04-07T02:54:28.015Z,98864.86
2023-04-07T02:56:57.403Z,98870.46
2023-04-07T02:59:27.439Z,98870.14
2023-04-07T03:01:55.812Z,98871.80
2023-04-07T03:04:25.195Z,98874.00
2023-04-07T03:06:53.319Z,98872.27
2023-04-07T03:09:25.759Z,98875.67
2023-04-07T03:11:54.090Z,98879.42
2023-04-07T03:14:22.170Z,98877.73
2023-04-07T03:16:51.464Z,98882.78
2023-04-07T03:19:22.452Z,98882.59
2023-04-07T03:21:51.681Z,98883.38
2023-04-07T03:24:21.761Z,98884.11
2023-04-07T03:26:51.398Z,98890.62
2023-04-07T03:29:24.477Z,98893.60
2023-04-07T03:31:53.818Z,98898.85
2023-04-07T03:34:26.517Z,98904.61
2023-04-07T03:36:54.450Z,98908.86
2023-04-07T03:39:23.070Z,98909.80
2023-04-07T03:41:52.146Z,98915.88
2023-04-07T03:44:20.643Z,98916.23
2023-04-07T03:46:50.646Z,98918.41
2023-04-07T03:49:19.227Z,98917.75
2023-04-07T03:51:48.633Z,98922.50
2023-04-07T03:54:17.452Z,98926.97
2023-04-07T03:56:46.849Z,98929.17
2023-04-07T03:59:23.056Z,98938.38
2023-04-07T04:02:00.729Z,98941.60
2023-04-07T04:04:29.747Z,98943.51
2023-04-07T04:06:57.764Z,98947.19
2023-04-07T04:09:47.160Z,98946.98
2023-04-07T04:12:15.458Z,98949.58
2023-04-07T04:14:53.237Z,98955.61
2023-04-07T04:17:21.765Z,98955.94
2023-04-07T04:19:50.027Z,98955.62
2023-04-07T04:22:24.718Z,98961.38
2023-04-07T04:24:55.627Z,98964.36
2023-04-07T04:27:26.801Z,98963.13
2023-04-07T04:30:02.247Z,98969.95
2023-04-07T04:32:36.364Z,98971.98
2023-04-07T04:35:06.560Z,98976.19
2023-04-07T04:37:38.009Z,98976.94
2023-04-07T04:40:11.888Z,98978.57
2023-04-07T04:42:41.743Z,98983.33
2023-04-07T04:45:11.355Z,98988.31
2023-04-07T04:47:41.524Z,98992.29
2023-04-07T04:50:10.738Z,98994.17
2023-04-07T04:52:39.567Z,98998.48
2023-04-07T04:55:09.129Z,99003.48
2023-04-07T04:57:38.481Z,99006.27
2023-04-07T05:00:08.849Z,99007.79
2023-04-07T05:02:38.499Z,99006.54
2023-04-07T05:05:07.978Z,99013.66
2023-04-07T05:07:40.459Z,99015.46
2023-04-07T05:10:09.969Z,99014.47
2023-04-07T05:12:39.478Z,99020.52
2023-04-07T05:15:08.913Z,99019.48
2023-04-07T05:17:38.489Z,99018.88
2023-04-07T05:20:09.627Z,99021.30
2023-04-07T05:22:41.495Z,99027.76
2023-04-07T05:25:10.892Z,99028.59
2023-04-07T05:27:41.168Z,99033.67
2023-04-07T05:30:14.081Z,99035.90
2023-04-07T05:32:43.158Z,99042.26
2023-04-07T05:35:24.509Z,99044.77
2023-04-07T05:37:57.080Z,99046.77
2023-04-07T05:42:32.839Z,99051.52
2023-04-07T05:45:01.584Z,99055.70
2023-04-07T05:47:31.009Z,99055.89
2023-04-07T05:49:59.006Z,99058.59
2023-04-07T05:52:27.560Z,99061.55
2023-04-07T05:55:06.907Z,99065.54
2023-04-07T05:57:37.048Z,99066.14
2023-04-07T06:00:06.937Z,99067.16
2023-04-07T06:02:46.228Z,99074.48
2023-04-07T06:05:18.958Z,99081.69
2023-04-07T06:07:48.666Z,99084.33
2023-04-07T06:10:18.159Z,99087.38
2023-04-07T06:12:47.947Z,99089.83
2023-04-07T06:15:15.948Z,99088.05
2023-04-07T06:17:45.872Z,99091.52
2023-04-07T06:20:14.062Z,99091.73
2023-04-07T06:22:42.044Z,99090.94
2023-04-07T06:25:10.609Z,99097.70
2023-04-07T06:27:39.819Z,99100.96
2023-04-07T06:30:10.274Z,99102.13
2023-04-07T06:32:38.881Z,99104.96
2023-04-07T06:35:07.321Z,99107.66
2023-04-07T06:37:40.590Z,99110.59
2023-04-07T06:40:09.269Z,99117.84
2023-04-07T06:42:38.010Z,99119.86
2023-04-07T06:45:26.473Z,99119.56
2023-04-07T06:47:54.626Z,99119.16
2023-04-07T06:50:22.747Z,99122.05
2023-04-07T06:52:50.723Z,99128.98
2023-04-07T06:55:24.372Z,99128.92
2023-04-07T06:57:52.541Z,99133.38
2023-04-07T07:00:20.983Z,99133.35
2023-04-07T07:03:08.691Z,99129.82
2023-04-07T07:05:37.180Z,99130.36
2023-04-07T07:08:05.735Z,99130.84
2023-04-07T07:10:33.836Z,99130.19
2023-04-07T07:13:02.208Z,99131.40
2023-04-07T07:15:30.353Z,99133.66
2023-04-07T07:17:58.410Z,99136.65
2023-04-07T07:20:27.698Z,99137.83
2023-04-07T07:22:56.625Z,99139.36
2023-04-07T07:25:27.084Z,99139.63
2023-04-07T07:27:55.183Z,99141.78
2023-04-07T07:30:24.083Z,99146.73
2023-04-07T07:32:54.963Z,99149.85
2023-04-07T07:35:23.223Z,99150.30
2023-04-07T07:37:52.289Z,99150.05
2023-04-07T07:40:20.946Z,99151.98
2023-04-07T07:42:51.096Z,99150.36
2023-04-07T07:45:19.707Z,99155.10
2023-04-07T07:47:47.936Z,99159.23
2023-04-07T07:50:16.649Z,99156.16
2023-04-07T07:52:44.770Z,99158.06
2023-04-07T07:55:13.292Z,99158.33
2023-04-07T07:57:41.952Z,99158.85
2023-04-07T08:00:10.476Z,99155.05
2023-04-07T08:02:41.738Z,99156.97
2023-04-07T08:05:11.388Z,99158.35
2023-04-07T08:07:39.546Z,99156.79
2023-04-07T08:10:08.294Z,99157.36
2023-04-07T08:12:42.772Z,99159.67
2023-04-07T08:15:11.353Z,99160.56
2023-04-07T08:17:39.711Z,99160.77
2023-04-07T08:20:10.474Z,99161.79
2023-04-07T08:22:38.542Z,99161.71
2023-04-07T08:25:06.558Z,99159.02
2023-04-07T08:27:35.946Z,99159.33
2023-04-07T08:30:09.033Z,99160.02
2023-04-07T08:32:46.313Z,99157.52
2023-04-07T08:35:14.254Z,99158.77
2023-04-07T08:37:44.300Z,99160.73
2023-04-07T08:40:13.071Z,99162.17
2023-04-07T08:42:42.462Z,99160.23
2023-04-07T08:45:10.591Z,99160.10
2023-04-07T08:47:38.918Z,99163.45
2023-04-07T08:50:08.388Z,99165.08
2023-04-07T08:52:52.751Z,99165.52
2023-04-07T08:55:21.133Z,99167.44
2023-04-07T08:57:49.687Z,99167.52
2023-04-07T09:00:17.782Z,99168.68
2023-04-07T09:02:49.516Z,99170.87
2023-04-07T09:05:17.634Z,99175.11
2023-04-07T09:07:45.804Z,99168.47
2023-04-07T09:10:13.821Z,99170.16
2023-04-07T09:12:43.172Z,99170.89
2023-04-07T09:15:11.339Z,99169.32
2023-04-07T09:17:45.852Z,99171.66
2023-04-07T09:20:14.226Z,99168.35
2023-04-07T09:22:43.540Z,99171.92
2023-04-07T09:25:12.820Z,99168.45
2023-04-07T09:27:41.217Z,99172.11
2023-04-07T09:30:14.702Z,99174.02
2023-04-07T09:32:43.377Z,99171.85
2023-04-07T09:35:11.621Z,99173.18
2023-04-07T09:37:39.796Z,99174.59
2023-04-07T09:40:08.650Z,99178.10
2023-04-07T09:42:48.280Z,99175.66
2023-04-07T09:45:34.018Z,99173.34
2023-04-07T09:48:19.243Z,99169.52
2023-04-07T09:50:52.123Z,99171.03
2023-04-07T09:53:20.544Z,99169.64
2023-04-07T09:55:48.500Z,99165.05
2023-04-07T09:58:17.010Z,99167.41
2023-04-07T10:00:45.730Z,99167.23
2023-04-07T10:03:14.977Z,99171.34
2023-04-07T10:05:43.699Z,99170.20
2023-04-07T10:08:12.257Z,99175.28
2023-04-07T10:10:41.978Z,99174.96
2023-04-07T10:13:10.692Z,99176.69
2023-04-07T10:15:39.686Z,99176.69
2023-04-07T10:18:07.924Z,99178.90
2023-04-07T10:20:37.819Z,99177.27
2023-04-07T10:23:20.620Z,99178.55
2023-04-07T10:25:49.912Z,99176.16
2023-04-07T10:28:18.856Z,99180.02
2023-04-07T10:30:47.885Z,99181.52
2023-04-07T10:33:49.620Z,99179.90
2023-04-07T10:36:21.346Z,99178.31
2023-04-07T10:39:07.365Z,99179.85
2023-04-07T10:41:36.995Z,99184.30
2023-04-07T10:44:06.153Z,99183.09
2023-04-07T10:46:47.257Z,99182.62
2023-04-07T10:49:18.562Z,99185.85
2023-04-07T10:52:12.888Z,99184.65
2023-04-07T10:54:42.942Z,99181.77
2023-04-07T10:57:13.148Z,99183.58
2023-04-07T11:00:19.927Z,99182.52
2023-04-07T11:02:48.813Z,99176.31
2023-04-07T11:05:22.481Z,99180.68
2023-04-07T11:07:52.395Z,99179.86
2023-04-07T11:10:23.395Z,99176.98
2023-04-07T11:12:59.660Z,99180.27
2023-04-07T11:15:27.682Z,99176.45
2023-04-07T11:18:18.151Z,99173.67
2023-04-07T11:20:55.144Z,99172.63
2023-04-07T11:23:25.272Z,99173.28
2023-04-07T11:26:03.249Z,99171.00
2023-04-07T11:28:31.455Z,99172.28
2023-04-07T11:31:01.639Z,99174.16
2023-04-07T11:33:31.450Z,99171.38
2023-04-07T11:36:00.618Z,99170.06
2023-04-07T11:38:29.923Z,99168.92
2023-04-07T11:40:57.921Z,99167.36
2023-04-07T11:43:27.748Z,99167.52
2023-04-07T11:46:15.749Z,99172.09
2023-04-07T11:48:47.499Z,99168.02
2023-04-07T11:51:24.609Z,99167.16
2023-04-07T11:53:56.805Z,99164.17
2023-04-07T11:56:24.885Z,99166.04
2023-04-07T11:58:54.060Z,99168.84
2023-04-07T12:01:24.416Z,99169.10
2023-04-07T12:03:59.917Z,99161.02
2023-04-07T12:06:35.049Z,99165.29
2023-04-07T12:09:03.986Z,99156.92
2023-04-07T12:11:33.011Z,99155.62
2023-04-07T12:14:05.241Z,99158.67
2023-04-07T12:16:38.365Z,99162.11
2023-04-07T12:19:06.287Z,99162.40
2023-04-07T12:21:35.893Z,99162.92
2023-04-07T12:24:04.071Z,99159.36
2023-04-07T12:26:32.227Z,99157.46
2023-04-07T12:29:05.147Z,99161.34
2023-04-07T12:31:34.479Z,99163.77
2023-04-07T12:34:02.672Z,99161.77
2023-04-07T12:36:31.011Z,99155.11
2023-04-07T12:38:59.153Z,99159.15
2023-04-07T12:41:27.691Z,99156.91
2023-04-07T12:43:55.963Z,99156.98
2023-04-07T12:46:26.875Z,99160.31
2023-04-07T12:48:54.954Z,99157.33
2023-04-07T12:51:22.999Z,99154.66
2023-04-07T12:53:51.338Z,99154.52
2023-04-07T12:56:19.995Z,99155.37
2023-04-07T12:58:48.405Z,99157.27
2023-04-07T13:01:16.919Z,99155.58
2023-04-07T13:03:46.455Z,99154.82
2023-04-07T13:06:18.570Z,99157.77
2023-04-07T13:08:46.640Z,99152.59
2023-04-07T13:11:14.628Z,99153.48
2023-04-07T13:13:43.075Z,99151.34
2023-04-07T13:16:11.356Z,99150.85
2023-04-07T13:18:39.327Z,99155.33
2023-04-07T13:21:42.633Z,99156.96
2023-04-07T13:23:58.511Z,99153.70
2023-04-07T13:26:26.685Z,99157.40
2023-04-07T13:28:54.727Z,99156.52
2023-04-07T13:31:23.790Z,99156.55
2023-04-07T13:33:53.040Z,99162.80
2023-04-07T13:36:23.297Z,99157.13
2023-04-07T13:38:51.396Z,99154.98
2023-04-07T13:41:19.297Z,99163.66
2023-04-07T13:43:47.727Z,99160.60
2023-04-07T13:46:28.078Z,99159.12
2023-04-07T13:48:57.046Z,99160.05
2023-04-07T13:51:25.279Z,99159.48
2023-04-07T13:53:53.279Z,99162.77
2023-04-07T13:56:22.260Z,99155.91
2023-04-07T13:58:50.586Z,99159.86
2023-04-07T14:01:18.735Z,99156.48
2023-04-07T14:03:48.163Z,99160.26
2023-04-07T14:06:16.462Z,99155.10
2023-04-07T14:08:44.489Z,99153.33
2023-04-07T14:11:12.703Z,99160.11
2023-04-07T14:13:41.311Z,99153.17
2023-04-07T14:16:09.452Z,99160.52
2023-04-07T14:18:37.506Z,99160.34
2023-04-07T14:21:09.740Z,99158.44
2023-04-07T14:23:38.338Z,99152.94
2023-04-07T14:26:09.920Z,99157.50
2023-04-07T14:28:37.874Z,99167.97
2023-04-07T14:31:06.737Z,99166.06
2023-04-07T14:33:34.752Z,99171.43
2023-04-07T14:36:02.930Z,99163.63
2023-04-07T14:38:32.334Z,99167.55
2023-04-07T14:43:34.052Z,99167.99
2023-04-07T14:46:07.344Z,99168.25
2023-04-07T14:48:35.531Z,99170.61
2023-04-07T14:51:09.630Z,99167.42
2023-04-07T14:53:45.625Z,99162.58
2023-04-07T14:56:14.121Z,99162.60
2023-04-07T14:58:46.337Z,99165.32
2023-04-07T15:01:14.774Z,99174.34
2023-04-07T15:03:44.312Z,99173.10
2023-04-07T15:06:13.551Z,99173.84
2023-04-07T15:08:43.917Z,99172.97
2023-04-07T15:11:12.893Z,99173.30
2023-04-07T15:13:40.857Z,99174.08
2023-04-07T15:16:13.411Z,99169.92
2023-04-07T15:18:44.459Z,99172.05
2023-04-07T15:21:12.557Z,99176.84
2023-04-07T15:23:41.992Z,99172.84
2023-04-07T15:26:10.473Z,99173.83
2023-04-07T15:28:42.228Z,99172.29
2023-04-07T15:31:11.176Z,99178.47
2023-04-07T15:33:40.388Z,99175.52
2023-04-07T15:36:08.719Z,99175.84
2023-04-07T15:38:40.319Z,99173.88
2023-04-07T15:41:08.390Z,99175.20
2023-04-07T15:43:37.538Z,99175.81
2023-04-07T15:46:05.624Z,99176.65
2023-04-07T15:48:33.785Z,99181.11
2023-04-07T15:51:02.913Z,99178.77
2023-04-07T15:53:31.039Z,99176.96
2023-04-07T15:55:59.125Z,99183.52
2023-04-07T15:58:27.215Z,99183.96
2023-04-07T16:00:55.445Z,99179.42
2023-04-07T16:03:28.163Z,99180.77
2023-04-07T16:05:57.063Z,99176.67
2023-04-07T16:08:25.336Z,99179.70
2023-04-07T16:10:53.230Z,99181.27
2023-04-07T16:22:46.474Z,99179.67
2023-04-07T16:29:58.617Z,99183.70
2023-04-07T16:50:59.622Z,99194.21
2023-04-07T17:21:15.493Z,99256.16
2023-04-07T17:51:26.372Z,99291.48
2023-04-07T18:00:25.863Z,99306.95
2023-04-07T18:03:14.247Z,99310.85
2023-04-07T18:05:46.787Z,99314.27
2023-04-07T18:08:15.081Z,99316.38
2023-04-07T18:10:43.491Z,99316.43
2023-04-07T18:13:12.758Z,99317.51
2023-04-07T18:15:40.829Z,99320.66
2023-04-07T18:18:10.311Z,99318.80
2023-04-07T18:20:38.747Z,99317.70
2023-04-07T18:23:06.781Z,99317.10
2023-04-07T18:25:35.124Z,99314.77
2023-04-07T18:28:04.061Z,99313.70
2023-04-07T18:30:35.010Z,99307.75
2023-04-07T18:33:03.517Z,99310.59
2023-04-07T18:35:32.091Z,99312.96
2023-04-07T18:38:01.128Z,99315.29
2023-04-07T18:40:32.821Z,99313.73
2023-04-07T18:43:01.158Z,99311.55
2023-04-07T18:45:29.331Z,99310.67
2023-04-07T18:47:57.811Z,99309.81
2023-04-07T18:50:26.016Z,99308.41
2023-04-07T18:52:54.133Z,99310.55
2023-04-07T18:55:22.251Z,99307.26
2023-04-07T18:57:50.498Z,99306.30
2023-04-07T19:00:26.798Z,99309.59
2023-04-07T19:02:56.667Z,99310.98
2023-04-07T19:05:25.823Z,99310.98
2023-04-07T19:07:55.050Z,99311.34
2023-04-07T19:10:24.156Z,99313.56
2023-04-07T19:12:52.198Z,99311.83
2023-04-07T19:15:20.849Z,99309.78
2023-04-07T19:17:48.963Z,99305.72
2023-04-07T19:20:18.177Z,99314.95
2023-04-07T19:22:47.418Z,99313.38
2023-04-07T19:25:15.667Z,99311.50
2023-04-07T19:27:44.049Z,99312.17
2023-04-07T19:30:12.345Z,99312.24
2023-04-07T19:32:41.191Z,99313.00
2023-04-07T19:35:11.874Z,99312.67
2023-04-07T19:37:42.631Z,99314.24
2023-04-07T19:40:10.894Z,99313.13
2023-04-07T19:42:40.092Z,99317.15
2023-04-07T19:45:08.576Z,99311.73
2023-04-07T19:47:39.133Z,99313.42
2023-04-07T19:50:08.640Z,99315.62
2023-04-07T19:52:38.828Z,99321.13
2023-04-07T19:55:10.587Z,99320.30
2023-04-07T19:57:40.408Z,99312.55
2023-04-07T20:00:10.047Z,99313.63
2023-04-07T20:03:08.792Z,99311.31
2023-04-07T20:05:37.241Z,99316.83
2023-04-07T20:08:06.156Z,99320.39
2023-04-07T20:10:34.376Z,99318.83
2023-04-07T20:13:06.389Z,99319.18
2023-04-07T20:15:36.729Z,99314.41
2023-04-07T20:18:04.682Z,99315.77
2023-04-07T20:20:33.495Z,99315.33
2023-04-07T20:23:02.105Z,99319.66
2023-04-07T20:25:30.349Z,99318.59
2023-04-07T20:28:01.945Z,99319.71
2023-04-07T20:30:30.606Z,99321.42
2023-04-07T20:32:59.824Z,99321.83
2023-04-07T20:35:28.240Z,99321.01
2023-04-07T20:37:56.881Z,99321.32
2023-04-07T20:40:30.755Z,99321.08
2023-04-07T20:42:59.467Z,99317.38
2023-04-07T20:45:27.685Z,99316.59
2023-04-07T20:47:57.571Z,99319.73
2023-04-07T20:50:25.980Z,99320.11
2023-04-07T20:52:58.161Z,99318.63
2023-04-07T20:55:27.278Z,99318.31
2023-04-07T20:57:55.699Z,99318.02
2023-04-07T21:00:24.105Z,99321.83
2023-04-07T21:02:52.695Z,99317.70
2023-04-07T21:05:21.146Z,99320.16
2023-04-07T21:07:49.261Z,99320.07
2023-04-07T21:10:18.079Z,99322.46
2023-04-07T21:12:46.434Z,99323.83
2023-04-07T21:15:17.963Z,99317.66
2023-04-07T21:17:46.245Z,99314.67
2023-04-07T21:20:14.298Z,99314.98
2023-04-07T21:22:43.082Z,99311.89
2023-04-07T21:25:11.108Z,99311.92
2023-04-07T21:27:39.183Z,99313.09
2023-04-07T21:30:08.381Z,99314.76
2023-04-07T21:32:37.076Z,99313.89
2023-04-07T21:35:06.967Z,99314.62
2023-04-07T21:37:35.284Z,99313.77
2023-04-07T21:40:04.217Z,99314.48
2023-04-07T21:42:33.540Z,99318.64
2023-04-07T21:45:01.520Z,99317.17
2023-04-07T21:47:30.122Z,99317.48
2023-04-07T21:49:59.668Z,99317.73
2023-04-07T21:52:27.738Z,99316.54
2023-04-07T21:54:56.399Z,99314.11
2023-04-07T21:57:32.878Z,99312.20
2023-04-07T22:00:01.036Z,99310.88
2023-04-07T22:02:30.125Z,99311.30
2023-04-07T22:04:58.735Z,99307.50
2023-04-07T22:07:27.330Z,99307.77
2023-04-07T22:09:55.824Z,99305.61
2023-04-07T22:12:29.886Z,99300.77
2023-04-07T22:14:57.775Z,99300.10
2023-04-07T22:17:26.140Z,99304.98
2023-04-07T22:19:58.182Z,99305.25
2023-04-07T22:22:26.460Z,99309.09
2023-04-07T22:24:54.392Z,99303.55
2023-04-07T22:27:22.566Z,99301.78
2023-04-07T22:29:50.540Z,99301.91
2023-04-07T22:32:18.625Z,99299.67
2023-04-07T22:34:46.955Z,99298.92
2023-04-07T22:37:14.872Z,99300.30
2023-04-07T22:39:46.392Z,99293.60
2023-04-07T22:42:14.830Z,99297.02
2023-04-07T22:44:46.321Z,99292.38
2023-04-07T22:47:14.540Z,99292.48
2023-04-07T22:49:42.478Z,99290.48
2023-04-07T22:52:10.597Z,99289.17
2023-04-07T22:54:39.387Z,99289.38
2023-04-07T22:57:11.063Z,99286.36
2023-04-07T22:59:38.999Z,99284.31
2023-04-07T23:02:12.934Z,99282.40
2023-04-07T23:04:41.307Z,99284.16
2023-04-07T23:07:09.451Z,99283.09
2023-04-07T23:09:38.000Z,99282.41
2023-04-07T23:12:08.807Z,99284.25
2023-04-07T23:14:36.785Z,99281.25
2023-04-07T23:17:05.696Z,99279.11
2023-04-07T23:19:34.063Z,99275.45
2023-04-07T23:22:02.009Z,99273.58
2023-04-07T23:24:30.437Z,99274.71
2023-04-07T23:26:58.868Z,99270.86
2023-04-07T23:29:27.635Z,99267.59
2023-04-07T23:31:56.739Z,99266.38
2023-04-07T23:34:24.771Z,99268.23
2023-04-07T23:36:53.047Z,99272.20
2023-04-07T23:39:21.049Z,99272.45
2023-04-07T23:41:49.100Z,99273.59
2023-04-07T23:44:17.974Z,99270.47
2023-04-07T23:46:46.175Z,99270.80
2023-04-07T23:49:14.341Z,99268.67
2023-04-07T23:51:43.831Z,99271.17
2023-04-07T23:54:23.826Z,99270.26
2023-04-07T23:56:52.541Z,99271.36
2023-04-07T23:59:21.010Z,99268.85
